Latest Weather Observations for Port Hedland

IDW60801

Issued at 4:05 pm WST Friday 29 August 2014 (issued every 30 minutes, with the page automatically refreshed every 10 minutes)

About weather observations | Map of weather stations | Latest weather observations for WA | Other Formats
Station Details ID: 004032 Name: PORT HEDLAND AIRPORT Lat: -20.37 Lon: 118.63 Height: 6.4 m
Data from the previous 72 hours. | See also: Recent months at Port Hedland
Date/Time
WST
Temp
°C
App
Temp
°C
Dew
Point
Rel
Hum
%
Delta-T
°C
Wind Press
QNH
hPa
Press
MSL
hPa
Rain
since 9 am
mm
Dir
 
Spd
km/h
Gust
km/h
Spd
kts
Gust
kts
29/04:00pm 27.6 21.5 2.9 20 12.2 N 24 32 13 17 1015.3 - 0.0
29/03:30pm 28.3 22.6 2.9 19 12.6 N 22 28 12 15 1015.3 - 0.0
29/03:00pm 28.7 21.9 1.1 17 13.3 NNE 26 33 14 18 1015.4 1015.4 0.0
29/02:30pm 28.6 22.4 4.2 21 12.4 NNE 26 33 14 18 1015.5 - 0.0
29/02:00pm 29.4 23.4 3.4 19 13.1 NNE 24 32 13 17 1015.8 - 0.0
29/01:30pm 29.6 22.4 -1.9 13 14.5 N 26 32 14 17 1016.1 - 0.0
29/01:00pm 30.2 23.2 -3.3 11 15.1 N 24 30 13 16 1016.3 - 0.0
29/12:30pm 30.7 23.5 -5.6 9 15.8 NNE 24 32 13 17 1016.6 - 0.0
29/12:00pm 30.9 23.1 -12.4 5 16.8 NNE 24 30 13 16 1017.1 1017.1 0.0
29/11:30am 31.1 23.1 -15.6 4 17.2 NE 24 32 13 17 1017.5 - 0.0
29/11:00am 30.9 23.6 -10.7 6 16.6 NE 22 28 12 15 1017.8 - 0.0
29/10:30am 30.8 23.2 -16.4 4 17.1 ENE 22 28 12 15 1018.0 - 0.0
29/10:00am 30.3 23.3 -11.9 6 16.4 E 20 30 11 16 1018.2 - 0.0
29/09:30am 29.5 23.9 -11.3 6 15.9 SE 13 20 7 11 1018.0 - 0.0
29/09:00am 27.8 22.0 -9.1 8 14.7 SE 15 19 8 10 1018.1 1018.1 0.0
29/08:30am 25.8 20.3 -5.2 12 13.0 SE 15 20 8 11 1018.1 - 0.0
29/08:00am 22.4 17.9 -3.1 18 10.8 SE 11 15 6 8 1018.1 - 0.0
29/07:30am 18.8 14.5 -1.6 25 8.6 SSE 11 15 6 8 1017.7 - 0.0
29/07:00am 15.0 10.5 -0.3 35 6.4 SSE 13 15 7 8 1017.3 - 0.0
29/06:30am 13.0 8.5 -0.4 39 5.5 S 13 15 7 8 1016.8 - 0.0
29/06:00am 12.0 7.6 0.4 45 4.8 SSE 13 15 7 8 1016.5 1016.5 0.0
29/05:30am 12.3 7.8 -0.2 42 5.1 S 13 19 7 10 1016.6 - 0.0
29/05:00am 13.4 8.6 -0.1 39 5.6 S 15 20 8 11 1016.2 - 0.0
29/04:30am 13.1 8.9 1.4 45 5.0 SSE 13 15 7 8 1016.2 - 0.0
29/04:00am 13.2 8.7 1.9 46 4.9 SSE 15 17 8 9 1016.1 - 0.0
29/03:30am 13.2 9.2 2.8 49 4.6 SSE 13 15 7 8 1016.2 - 0.0
29/03:00am 13.6 10.0 3.0 48 4.7 S 11 13 6 7 1016.3 1016.3 0.0
29/02:30am 14.0 10.5 3.6 49 4.7 S 11 13 6 7 1016.3 - 0.0
29/02:00am 13.9 10.9 4.0 51 4.5 S 9 11 5 6 1016.3 - 0.0
29/01:30am 14.1 11.2 4.6 52 4.4 S 9 13 5 7 1016.7 - 0.0
29/01:00am 14.8 11.0 4.1 48 4.9 S 13 15 7 8 1016.9 - 0.0
29/12:30am 14.0 10.4 5.2 55 4.1 S 13 17 7 9 1017.1 - 0.0
29/12:00am 15.1 11.6 5.6 53 4.5 S 13 17 7 9 1017.3 1017.3 0.0
 
Date/Time
WST
Temp
°C
App
Temp
°C
Dew
Point
Rel
Hum
%
Delta-T
°C
Wind Press
QNH
hPa
Press
MSL
hPa
Rain
since 9 am
mm
Dir
 
Spd
km/h
Gust
km/h
Spd
kts
Gust
kts
28/11:30pm 15.4 12.1 6.6 55 4.3 S 13 17 7 9 1017.3 - 0.0
28/11:00pm 16.5 13.7 8.4 58 4.1 S 13 19 7 10 1017.3 - 0.0
28/10:30pm 16.2 13.8 8.8 61 3.8 S 11 15 6 8 1017.5 - 0.0
28/10:00pm 16.3 14.8 9.3 63 3.6 S 7 11 4 6 1017.3 - 0.0
28/09:30pm 16.4 14.4 8.6 60 4.0 SSW 9 11 5 6 1017.0 - 0.0
28/09:00pm 17.4 15.3 9.6 60 4.1 SSW 11 15 6 8 1016.9 1016.9 0.0
28/08:30pm 17.7 17.1 11.7 68 3.3 W 6 11 3 6 1016.7 - 0.0
28/08:00pm 18.9 19.5 13.2 69 3.2 NNW 2 6 1 3 1016.5 - 0.0
28/07:30pm 18.8 18.2 12.3 66 3.6 N 7 9 4 5 1016.2 - 0.0
28/07:00pm 19.4 17.6 10.7 57 4.7 N 11 13 6 7 1015.8 - 0.0
28/06:30pm 22.5 19.8 9.0 42 7.2 N 13 19 7 10 1015.2 - 0.0
28/06:00pm 24.5 20.3 5.6 29 9.6 N 17 22 9 12 1014.9 1014.9 0.0
28/05:30pm 25.6 21.0 5.7 28 10.2 N 19 24 10 13 1014.6 - 0.0
28/05:00pm 26.5 21.3 5.5 26 10.8 N 22 30 12 16 1014.5 - 0.0
28/04:30pm 27.5 21.3 2.3 19 12.3 NNE 24 35 13 19 1014.6 - 0.0
28/04:00pm 28.1 21.1 2.1 18 12.7 N 28 35 15 19 1014.6 - 0.0
28/03:30pm 29.0 22.1 2.6 18 13.1 NNE 28 37 15 20 1014.7 - 0.0
28/03:00pm 29.3 22.2 3.6 19 13.0 N 30 37 16 20 1014.8 1014.8 0.0
28/02:30pm 29.1 22.3 5.2 22 12.4 NNE 30 37 16 20 1014.8 - 0.0
28/02:00pm 30.0 22.9 3.6 18 13.4 NNE 30 37 16 20 1015.1 - 0.0
28/01:30pm 28.7 22.5 6.0 23 11.9 NNE 28 37 15 20 1015.5 - 0.0
28/01:00pm 28.6 23.6 4.5 21 12.3 NNE 20 26 11 14 1015.9 - 0.0
28/12:30pm 29.7 23.4 1.4 16 13.8 NE 24 30 13 16 1016.1 - 0.0
28/12:00pm 30.3 23.9 -2.0 12 14.9 NE 22 28 12 15 1016.6 1016.6 0.0
28/11:30am 30.2 23.0 -5.0 10 15.4 NNE 24 28 13 15 1017.2 - 0.0
28/11:00am 31.6 23.5 -6.9 8 16.5 NE 28 35 15 19 1017.2 - 0.0
28/10:30am 30.0 22.1 -4.5 10 15.2 ENE 28 37 15 20 1017.5 - 0.0
28/10:00am 29.8 22.1 -10.7 6 16.0 ENE 24 35 13 19 1017.6 - 0.0
28/09:30am 29.8 22.9 -2.4 12 14.7 E 24 32 13 17 1017.7 - 0.0
28/09:00am 28.6 24.7 8.5 28 11.0 E 19 24 10 13 1017.6 1017.6 0.0
28/08:30am 25.9 20.0 -0.9 17 12.2 ESE 20 30 11 16 1017.8 - 0.0
28/08:00am 23.3 18.5 0.2 21 10.5 SSE 15 20 8 11 1017.3 - 0.0
28/07:30am 19.6 15.0 1.8 30 8.1 S 15 20 8 11 1017.3 - 0.0
28/07:00am 16.3 11.8 2.2 38 6.3 S 15 20 8 11 1017.2 - 0.0
28/06:30am 13.8 9.7 2.4 46 5.0 S 13 17 7 9 1016.8 - 0.0
28/06:00am 14.6 10.5 2.4 43 5.4 S 13 17 7 9 1016.7 1016.7 0.0
28/05:30am 14.7 10.3 2.5 43 5.4 S 15 17 8 9 1016.5 - 0.0
28/05:00am 15.0 10.7 3.0 44 5.4 S 15 19 8 10 1016.3 - 0.0
28/04:30am 14.9 11.1 3.7 47 5.1 S 13 15 7 8 1016.0 - 0.0
28/04:00am 14.4 10.7 4.7 52 4.5 S 13 15 7 8 1015.8 - 0.0
28/03:30am 14.7 11.1 5.1 52 4.5 SSE 13 15 7 8 1015.7 - 0.0
28/03:00am 14.7 11.2 5.4 53 4.4 S 13 17 7 9 1015.8 1015.8 0.0
28/02:30am 14.4 11.1 6.3 58 3.9 S 13 15 7 8 1015.8 - 0.0
28/02:00am 14.6 11.8 6.8 59 3.8 S 11 15 6 8 1015.9 - 0.0
28/01:30am 15.0 11.8 7.0 59 3.9 S 13 15 7 8 1016.2 - 0.0
28/01:00am 14.7 11.6 7.4 61 3.6 S 13 15 7 8 1016.3 - 0.0
28/12:30am 14.9 12.4 8.1 64 3.4 S 11 13 6 7 1016.5 - 0.0
28/12:00am 14.9 12.8 8.3 64 3.3 S 9 13 5 7 1016.6 1016.6 0.0
 
Date/Time
WST
Temp
°C
App
Temp
°C
Dew
Point
Rel
Hum
%
Delta-T
°C
Wind Press
QNH
hPa
Press
MSL
hPa
Rain
since 9 am
mm
Dir
 
Spd
km/h
Gust
km/h
Spd
kts
Gust
kts
27/11:30pm 15.5 12.6 8.1 61 3.7 S 13 15 7 8 1016.8 - 0.0
27/11:00pm 15.4 12.3 8.7 64 3.4 SSW 15 20 8 11 1017.1 - 0.0
27/10:30pm 15.6 13.8 9.4 66 3.2 S 9 13 5 7 1017.0 - 0.0
27/10:00pm 16.4 15.0 10.8 69 3.0 SSE 9 13 5 7 1017.0 - 0.0
27/09:30pm 17.2 15.8 10.9 66 3.4 S 9 13 5 7 1017.1 - 0.0
27/09:00pm 17.3 18.0 12.2 72 2.8 CALM 0 0 0 0 1017.0 1017.0 0.0
27/08:30pm 17.7 17.9 13.1 74 2.6 SSW 4 7 2 4 1016.9 - 0.0
27/08:00pm 18.1 18.1 13.5 74 2.6 NNE 6 9 3 5 1016.4 - 0.0
27/07:30pm 19.0 19.1 13.9 72 2.9 NNW 6 7 3 4 1016.2 - 0.0
27/07:00pm 19.9 19.0 13.8 68 3.5 N 11 13 6 7 1015.8 - 0.0
27/06:30pm 22.2 20.3 12.9 55 5.3 N 15 17 8 9 1015.4 - 0.0
27/06:00pm 23.3 20.4 11.1 46 6.8 N 17 22 9 12 1015.0 1015.0 0.0
27/05:30pm 24.8 20.6 9.6 38 8.3 N 22 30 12 16 1015.0 - 0.0
27/05:00pm 25.6 21.1 10.1 37 8.6 N 24 32 13 17 1014.8 - 0.0
27/04:30pm 25.9 21.0 10.0 36 8.8 N 26 35 14 19 1014.7 - 0.0
27/04:00pm 26.7 22.1 10.9 37 8.9 N 26 35 14 19 1014.8 - 0.0
27/03:30pm 26.5 21.3 10.4 36 9.0 N 28 35 15 19 1014.6 - 0.0
27/03:00pm 27.0 21.5 10.4 35 9.3 N 30 37 16 20 1014.7 1014.7 0.0
27/02:30pm 27.1 21.1 10.1 34 9.5 NNE 32 39 17 21 1014.9 - 0.0
27/02:00pm 27.3 21.4 10.4 34 9.5 N 32 41 17 22 1015.1 - 0.0
27/01:30pm 27.2 21.7 11.7 38 8.9 N 32 41 17 22 1015.5 - 0.0
27/01:00pm 28.0 23.3 12.1 37 9.2 NNE 28 39 15 21 1016.0 - 0.0
27/12:30pm 27.7 22.6 10.5 34 9.7 N 28 35 15 19 1016.3 - 0.0
27/12:00pm 29.3 23.7 5.2 21 12.5 NNE 24 30 13 16 1016.8 1016.8 0.0
27/11:30am 31.1 26.3 5.8 20 13.4 NNE 20 26 11 14 1017.1 - 0.0
27/11:00am 29.1 23.5 3.5 19 12.9 NNE 22 30 12 16 1017.6 - 0.0
27/10:30am 29.7 23.4 3.6 19 13.2 NE 26 32 14 17 1017.7 - 0.0
27/10:00am 29.4 23.0 3.0 18 13.2 ENE 26 32 14 17 1017.8 - 0.0
27/09:30am 28.6 22.3 5.8 23 11.9 ENE 28 33 15 18 1018.0 - 0.0
27/09:00am 27.9 20.6 2.7 19 12.4 E 30 39 16 21 1017.8 1017.8 0.0
27/08:30am 26.0 18.6 -3.5 14 12.8 E 26 35 14 19 1017.8 - 0.0
27/08:00am 23.8 17.0 -5.5 14 12.0 ESE 22 28 12 15 1017.8 - 0.0
27/07:30am 20.4 15.7 -1.9 22 9.5 SE 13 20 7 11 1017.5 - 0.0
27/07:00am 16.1 11.6 -0.5 32 7.0 SSE 13 15 7 8 1016.9 - 0.0
27/06:30am 13.9 9.9 0.7 40 5.6 SSE 11 13 6 7 1016.6 - 0.0
27/06:00am 13.8 9.8 0.8 41 5.5 SSE 11 13 6 7 1016.5 1016.5 0.0
27/05:30am 14.3 10.3 0.3 38 5.9 S 11 13 6 7 1016.2 - 0.0
27/05:00am 14.5 10.6 1.0 40 5.8 S 11 13 6 7 1015.9 - 0.0
27/04:30am 15.0 10.7 0.8 38 6.1 S 13 15 7 8 1015.8 - 0.0
27/04:00am 15.2 11.0 1.4 39 6.0 S 13 15 7 8 1015.7 - 0.0
27/03:30am 15.4 11.2 1.4 38 6.1 S 13 15 7 8 1015.7 - 0.0
27/03:00am 15.4 11.3 2.1 40 5.9 S 13 17 7 9 1015.8 1015.8 0.0
27/02:30am 15.7 11.2 2.2 40 6.0 S 15 19 8 10 1016.0 - 0.0
27/02:00am 15.6 11.1 2.4 41 5.9 S 15 17 8 9 1016.1 - 0.0
27/01:30am 15.5 11.4 2.5 41 5.8 S 13 17 7 9 1016.2 - 0.0
27/01:00am 16.0 11.7 3.0 41 5.9 S 15 17 8 9 1016.4 - 0.0
27/12:30am 16.0 11.7 3.3 42 5.8 S 15 17 8 9 1016.6 - 0.0
27/12:00am 15.9 11.8 4.6 47 5.3 S 15 20 8 11 1016.7 1016.7 0.0
 
Date/Time
WST
Temp
°C
App
Temp
°C
Dew
Point
Rel
Hum
%
Delta-T
°C
Wind Press
QNH
hPa
Press
MSL
hPa
Rain
since 9 am
mm
Dir
 
Spd
km/h
Gust
km/h
Spd
kts
Gust
kts
26/11:30pm 15.8 12.2 5.0 48 5.1 S 13 17 7 9 1016.8 - 0.0
26/11:00pm 16.4 13.4 5.8 49 5.1 S 11 15 6 8 1016.7 - 0.0
26/10:30pm 16.7 13.4 6.2 50 5.1 S 13 17 7 9 1016.9 - 0.0
26/10:00pm 16.5 13.7 7.0 53 4.7 S 11 13 6 7 1017.0 - 0.0
26/09:30pm 17.6 15.4 7.7 52 5.0 S 9 11 5 6 1017.1 - 0.0
26/09:00pm 17.2 15.7 9.3 59 4.1 S 7 9 4 5 1017.1 1017.1 0.0
26/08:30pm 18.5 17.8 10.0 57 4.5 W 4 9 2 5 1017.1 - 0.0
26/08:00pm 18.8 19.3 11.5 62 4.0 CALM 0 0 0 0 1016.9 - 0.0
26/07:30pm 19.3 18.9 12.3 64 3.9 NNW 6 7 3 4 1016.7 - 0.0
26/07:00pm 20.1 19.3 11.8 59 4.6 NNW 7 9 4 5 1016.4 - 0.0
26/06:30pm 21.1 20.1 10.9 52 5.6 NNW 7 11 4 6 1016.0 - 0.0
26/06:00pm 22.4 20.2 9.4 43 7.0 NNW 11 13 6 7 1015.7 1015.7 0.0
26/05:30pm 25.4 21.2 5.6 28 10.1 N 17 24 9 13 1015.2 - 0.0
26/05:00pm 26.8 22.5 5.4 25 11.0 N 17 20 9 11 1015.1 - 0.0
26/04:30pm 26.9 21.5 4.6 24 11.3 N 22 28 12 15 1015.2 - 0.0

Other Formats:

Comma delimited format used in spreadsheet applications
http://www.bom.gov.au/fwo/IDW60801/IDW60801.94312.axf

JavaScript Object Notation format (JSON) in row-major order
http://www.bom.gov.au/fwo/IDW60801/IDW60801.94312.json